createdAt,value
2018-11-29T00:00:22.181Z,3.27
2018-11-29T00:02:50.895Z,2.80
2018-11-29T00:05:19.280Z,3.13
2018-11-29T00:07:47.408Z,3.50
2018-11-29T00:10:15.527Z,3.20
2018-11-29T00:12:43.651Z,3.53
2018-11-29T00:15:12.733Z,2.83
2018-11-29T00:17:40.844Z,3.20
2018-11-29T00:20:14.805Z,2.80
2018-11-29T00:22:43.749Z,3.30
2018-11-29T00:25:12.697Z,3.20
2018-11-29T00:27:40.811Z,3.67
2018-11-29T00:30:11.187Z,3.57
2018-11-29T00:32:39.337Z,3.07
2018-11-29T00:35:09.793Z,3.00
2018-11-29T00:37:37.882Z,3.43
2018-11-29T00:40:11.367Z,2.97
2018-11-29T00:42:39.448Z,3.07
2018-11-29T00:45:10.072Z,3.00
2018-11-29T00:47:38.205Z,3.10
2018-11-29T00:50:08.365Z,3.03
2018-11-29T00:52:37.055Z,3.07
2018-11-29T00:55:05.362Z,3.00
2018-11-29T00:57:33.481Z,3.60
2018-11-29T01:00:01.547Z,3.13
2018-11-29T01:02:29.637Z,3.43
2018-11-29T01:04:57.741Z,3.50
2018-11-29T01:07:25.852Z,3.20
2018-11-29T01:09:54.071Z,3.00
2018-11-29T01:12:22.175Z,3.33
2018-11-29T01:14:50.269Z,3.73
2018-11-29T01:17:18.350Z,3.07
2018-11-29T01:19:46.452Z,3.20
2018-11-29T01:22:14.572Z,2.90
2018-11-29T01:24:42.705Z,2.60
2018-11-29T01:27:10.812Z,3.00
2018-11-29T01:29:38.905Z,2.83
2018-11-29T01:32:06.988Z,2.90
2018-11-29T01:34:35.103Z,2.80
2018-11-29T01:37:03.426Z,3.10
2018-11-29T01:39:31.543Z,3.37
2018-11-29T01:41:59.653Z,3.20
2018-11-29T01:44:27.757Z,2.93
2018-11-29T01:46:55.864Z,2.60
2018-11-29T01:49:24.032Z,2.67
2018-11-29T01:51:52.128Z,3.07
2018-11-29T01:54:20.231Z,2.87
2018-11-29T01:56:48.310Z,2.77
2018-11-29T01:59:16.421Z,3.30
2018-11-29T02:01:44.515Z,3.57
2018-11-29T02:04:12.592Z,3.20
2018-11-29T02:06:40.676Z,2.53
2018-11-29T02:09:09.597Z,3.40
2018-11-29T02:11:37.734Z,3.57
2018-11-29T02:14:06.285Z,3.53
2018-11-29T02:16:34.355Z,2.80
2018-11-29T02:19:02.454Z,2.93
2018-11-29T02:21:30.591Z,2.80
2018-11-29T02:23:58.662Z,3.40
2018-11-29T02:26:27.070Z,2.77
2018-11-29T02:28:55.135Z,3.07
2018-11-29T02:31:23.212Z,2.87
2018-11-29T02:33:51.544Z,2.90
2018-11-29T02:36:19.685Z,3.10
2018-11-29T02:38:47.755Z,3.10
2018-11-29T02:41:16.105Z,2.90
2018-11-29T02:43:44.212Z,3.00
2018-11-29T02:46:12.322Z,3.43
2018-11-29T02:48:40.436Z,3.20
2018-11-29T02:51:08.554Z,3.90
2018-11-29T02:53:36.658Z,3.03
2018-11-29T02:56:04.897Z,2.93
2018-11-29T02:58:33.034Z,3.00
2018-11-29T03:01:01.130Z,3.37
2018-11-29T03:03:29.319Z,2.77
2018-11-29T03:05:57.397Z,3.10
2018-11-29T03:08:25.485Z,2.97
2018-11-29T03:10:53.827Z,2.97
2018-11-29T03:13:21.924Z,3.40
2018-11-29T03:15:50.069Z,3.10
2018-11-29T03:18:18.150Z,2.97
2018-11-29T03:20:46.408Z,2.83
2018-11-29T03:23:14.514Z,3.37
2018-11-29T03:25:42.612Z,2.97
2018-11-29T03:28:10.735Z,2.67
2018-11-29T03:30:39.046Z,3.00
2018-11-29T03:33:07.143Z,2.90
2018-11-29T03:35:35.234Z,3.43
2018-11-29T03:38:03.349Z,2.80
2018-11-29T03:40:31.436Z,3.10
2018-11-29T03:42:59.522Z,2.63
2018-11-29T03:45:27.601Z,2.77
2018-11-29T03:47:55.706Z,2.93
2018-11-29T03:50:23.894Z,3.47
2018-11-29T03:52:52.066Z,3.00
2018-11-29T03:55:20.399Z,3.33
2018-11-29T03:57:48.528Z,3.40
2018-11-29T04:00:17.500Z,3.17
2018-11-29T04:02:47.369Z,3.40
2018-11-29T04:05:15.525Z,3.27
2018-11-29T04:07:43.612Z,2.77
2018-11-29T04:10:14.666Z,3.17
2018-11-29T04:12:42.766Z,3.07
2018-11-29T04:15:11.921Z,2.80
2018-11-29T04:17:40.942Z,3.47
2018-11-29T04:20:10.847Z,2.80
2018-11-29T04:22:38.986Z,2.77
2018-11-29T04:25:08.704Z,3.13
2018-11-29T04:27:36.836Z,3.40
2018-11-29T04:30:05.767Z,3.10
2018-11-29T04:32:34.121Z,2.97
2018-11-29T04:35:02.305Z,3.47
2018-11-29T04:37:30.498Z,2.70
2018-11-29T04:39:58.617Z,3.87
2018-11-29T04:42:26.723Z,3.23
2018-11-29T04:44:54.866Z,3.77
2018-11-29T04:47:22.979Z,2.80
2018-11-29T04:49:51.197Z,3.57
2018-11-29T04:52:19.353Z,3.10
2018-11-29T04:54:48.535Z,3.17
2018-11-29T04:57:16.681Z,3.00
2018-11-29T04:59:44.805Z,2.90
2018-11-29T05:02:12.969Z,3.20
2018-11-29T05:04:41.110Z,3.07
2018-11-29T05:07:09.249Z,3.30
2018-11-29T05:09:37.355Z,3.63
2018-11-29T05:12:05.508Z,4.80
2018-11-29T05:14:33.640Z,13.20
2018-11-29T05:17:01.812Z,16.40
2018-11-29T05:19:29.937Z,15.93
2018-11-29T05:21:58.153Z,15.50
2018-11-29T05:24:28.854Z,13.87
2018-11-29T05:26:56.989Z,14.03
2018-11-29T05:29:25.086Z,14.30
2018-11-29T05:31:53.195Z,12.87
2018-11-29T05:34:21.304Z,13.67
2018-11-29T05:36:49.411Z,12.73
2018-11-29T05:39:17.533Z,13.40
2018-11-29T05:41:45.633Z,12.70
2018-11-29T05:44:13.758Z,12.60
2018-11-29T05:46:42.695Z,11.80
2018-11-29T05:49:09.995Z,12.07
2018-11-29T05:51:38.117Z,11.40
2018-11-29T05:54:06.218Z,11.43
2018-11-29T05:56:34.331Z,11.23
2018-11-29T05:59:02.422Z,10.60
2018-11-29T06:01:38.849Z,11.23
2018-11-29T06:04:06.937Z,14.17
2018-11-29T06:06:35.077Z,12.50
2018-11-29T06:09:03.412Z,12.77
2018-11-29T06:11:31.508Z,11.30
2018-11-29T06:13:59.617Z,10.83
2018-11-29T06:16:27.936Z,11.20
2018-11-29T06:18:56.041Z,11.83
2018-11-29T06:21:24.153Z,10.57
2018-11-29T06:23:52.249Z,9.60
2018-11-29T06:26:20.374Z,9.40
2018-11-29T06:28:48.500Z,9.30
2018-11-29T06:31:16.633Z,9.10
2018-11-29T06:33:45.055Z,10.20
2018-11-29T06:36:13.132Z,9.57
2018-11-29T06:38:41.257Z,9.47
2018-11-29T06:41:09.361Z,10.23
2018-11-29T06:43:37.480Z,9.83
2018-11-29T06:46:05.880Z,8.60
2018-11-29T06:48:33.981Z,9.13
2018-11-29T06:51:02.100Z,8.27
2018-11-29T06:53:35.541Z,8.50
2018-11-29T06:56:03.668Z,7.93
2018-11-29T06:58:31.758Z,8.60
2018-11-29T07:00:59.871Z,9.33
2018-11-29T07:03:28.922Z,8.00
2018-11-29T07:05:56.086Z,7.57
2018-11-29T07:08:24.189Z,8.30
2018-11-29T07:10:52.312Z,7.50
2018-11-29T07:13:20.432Z,7.97
2018-11-29T07:15:48.555Z,8.90
2018-11-29T07:18:16.634Z,8.17
2018-11-29T07:20:54.737Z,8.13
2018-11-29T07:23:22.824Z,8.20
2018-11-29T07:25:50.925Z,8.40
2018-11-29T07:28:19.028Z,7.77
2018-11-29T07:30:47.141Z,7.67
2018-11-29T07:33:15.385Z,7.03
2018-11-29T07:35:43.517Z,7.67
2018-11-29T07:38:11.666Z,8.67
2018-11-29T07:40:39.762Z,7.67
2018-11-29T07:43:08.234Z,7.33
2018-11-29T07:45:36.341Z,7.50
2018-11-29T07:48:04.420Z,7.60
2018-11-29T07:50:32.549Z,7.07
2018-11-29T07:53:00.666Z,6.90
2018-11-29T07:55:28.757Z,7.47
2018-11-29T07:57:56.860Z,7.40
2018-11-29T08:00:24.960Z,7.50
2018-11-29T08:02:53.064Z,7.10
2018-11-29T08:05:21.179Z,7.30
2018-11-29T08:07:49.481Z,7.30
2018-11-29T08:10:18.516Z,7.60
2018-11-29T08:12:46.742Z,7.33
2018-11-29T08:15:16.001Z,7.30
2018-11-29T08:17:44.100Z,6.60
2018-11-29T08:20:14.680Z,7.37
2018-11-29T08:22:42.796Z,6.73
2018-11-29T08:25:11.365Z,6.87
2018-11-29T08:27:39.661Z,6.63
2018-11-29T08:30:12.033Z,7.50
2018-11-29T08:32:40.208Z,6.93
2018-11-29T08:35:09.631Z,6.43
2018-11-29T08:37:38.096Z,6.80
2018-11-29T08:40:09.020Z,6.73
2018-11-29T08:42:37.133Z,7.13
2018-11-29T08:45:06.758Z,6.47
2018-11-29T08:47:34.874Z,6.67
2018-11-29T08:50:02.973Z,6.53
2018-11-29T08:52:31.093Z,7.27
2018-11-29T08:54:59.441Z,6.23
2018-11-29T08:57:27.597Z,7.00
2018-11-29T08:59:55.744Z,6.70
2018-11-29T09:02:23.865Z,6.80
2018-11-29T09:04:51.982Z,6.77
2018-11-29T09:07:20.102Z,7.03
2018-11-29T09:09:48.241Z,6.43
2018-11-29T09:12:16.372Z,7.03
2018-11-29T09:14:44.482Z,6.50
2018-11-29T09:17:12.625Z,6.87
2018-11-29T09:19:40.717Z,6.40
2018-11-29T09:22:08.841Z,6.20
2018-11-29T09:24:37.071Z,6.53
2018-11-29T09:27:05.440Z,6.87
2018-11-29T09:29:33.571Z,6.73
2018-11-29T09:32:01.685Z,7.00
2018-11-29T09:34:29.814Z,6.50
2018-11-29T09:36:57.901Z,6.27
2018-11-29T09:39:26.021Z,6.60
2018-11-29T09:41:54.132Z,6.50
2018-11-29T09:44:22.249Z,6.83
2018-11-29T09:46:50.845Z,6.60
2018-11-29T09:49:18.966Z,6.10
2018-11-29T09:51:47.117Z,6.50
2018-11-29T09:54:15.425Z,6.77
2018-11-29T09:56:43.513Z,6.53
2018-11-29T09:59:11.642Z,6.60
2018-11-29T10:01:39.737Z,6.30
2018-11-29T10:04:07.869Z,6.57
2018-11-29T10:06:35.977Z,6.27
2018-11-29T10:09:05.587Z,6.23
2018-11-29T10:11:33.709Z,6.10
2018-11-29T10:14:01.822Z,6.67
2018-11-29T10:16:29.951Z,6.00
2018-11-29T10:18:58.086Z,6.47
2018-11-29T10:21:26.196Z,6.00
2018-11-29T10:23:54.297Z,6.37
2018-11-29T10:26:22.434Z,6.93
2018-11-29T10:28:50.549Z,5.90
2018-11-29T10:31:18.639Z,6.50
2018-11-29T10:33:46.721Z,6.20
2018-11-29T10:36:14.812Z,6.40
2018-11-29T10:38:42.913Z,6.53
2018-11-29T10:41:11.005Z,6.70
2018-11-29T10:43:39.124Z,6.50
2018-11-29T10:46:07.308Z,5.80
2018-11-29T10:48:35.393Z,5.77
2018-11-29T10:51:03.497Z,6.37
2018-11-29T10:53:36.964Z,6.07
2018-11-29T10:55:59.685Z,6.00
2018-11-29T10:58:27.778Z,6.30
2018-11-29T11:01:01.201Z,5.93
2018-11-29T11:03:29.296Z,5.83
2018-11-29T11:05:57.399Z,6.20
2018-11-29T11:08:25.468Z,5.97
2018-11-29T11:10:53.582Z,5.73
2018-11-29T11:13:21.705Z,6.07
2018-11-29T11:15:49.790Z,5.57
2018-11-29T11:18:18.094Z,6.37
2018-11-29T11:20:46.181Z,6.30
2018-11-29T11:23:14.300Z,5.57
2018-11-29T11:25:42.402Z,5.73
2018-11-29T11:28:10.728Z,5.67
2018-11-29T11:30:41.673Z,5.90
2018-11-29T11:33:09.757Z,6.50
2018-11-29T11:35:37.837Z,6.37
2018-11-29T11:38:06.185Z,5.87
2018-11-29T11:40:34.303Z,6.20
2018-11-29T11:43:05.301Z,6.10
2018-11-29T11:45:30.523Z,5.57
2018-11-29T11:48:03.131Z,5.90
2018-11-29T11:50:26.770Z,5.80
2018-11-29T11:52:55.551Z,5.77
2018-11-29T11:55:30.025Z,5.87
2018-11-29T11:57:51.790Z,6.30
2018-11-29T12:00:27.967Z,5.93
2018-11-29T12:03:00.323Z,5.83
2018-11-29T12:05:28.407Z,6.13
2018-11-29T12:07:56.529Z,6.50
2018-11-29T12:10:24.621Z,5.53
2018-11-29T12:12:52.737Z,6.13
2018-11-29T12:15:20.830Z,5.50
2018-11-29T12:17:48.945Z,5.73
2018-11-29T12:20:17.859Z,5.73
2018-11-29T12:22:45.965Z,5.93
2018-11-29T12:25:15.025Z,5.77
2018-11-29T12:27:43.129Z,5.80
2018-11-29T12:30:15.729Z,5.63
2018-11-29T12:32:44.015Z,5.33
2018-11-29T12:35:12.117Z,5.70
2018-11-29T12:37:40.303Z,5.70
2018-11-29T12:40:13.753Z,5.17
2018-11-29T12:42:41.865Z,5.60
2018-11-29T12:45:13.761Z,5.40
2018-11-29T12:47:42.238Z,5.73
2018-11-29T12:50:13.614Z,6.20
2018-11-29T12:52:41.744Z,5.70
2018-11-29T12:55:10.576Z,5.40
2018-11-29T12:57:38.691Z,5.47
2018-11-29T13:00:12.438Z,5.30
2018-11-29T13:02:45.618Z,5.97
2018-11-29T13:05:13.769Z,5.53
2018-11-29T13:07:43.380Z,5.73
2018-11-29T13:10:10.268Z,5.60
2018-11-29T13:12:38.365Z,5.73
2018-11-29T13:15:10.497Z,5.87
2018-11-29T13:17:38.520Z,5.00
2018-11-29T13:20:09.466Z,5.37
2018-11-29T13:22:37.833Z,5.83
2018-11-29T13:25:08.847Z,5.53
2018-11-29T13:27:36.944Z,5.57
2018-11-29T13:30:08.563Z,5.40
2018-11-29T13:32:36.666Z,4.77
2018-11-29T13:35:07.253Z,5.37
2018-11-29T13:37:35.346Z,5.03
2018-11-29T13:40:04.654Z,5.27
2018-11-29T13:42:32.761Z,5.00
2018-11-29T13:45:00.878Z,5.30
2018-11-29T13:47:29.013Z,5.63
2018-11-29T13:49:57.121Z,5.40
2018-11-29T13:52:25.224Z,4.57
2018-11-29T13:54:53.346Z,5.13
2018-11-29T13:57:21.469Z,4.80
2018-11-29T13:59:49.569Z,5.20
2018-11-29T14:02:17.696Z,5.43
2018-11-29T14:04:45.811Z,4.83
2018-11-29T14:07:13.930Z,5.10
2018-11-29T14:09:42.069Z,4.93
2018-11-29T14:12:10.295Z,4.97
2018-11-29T14:14:38.373Z,5.07
2018-11-29T14:17:06.479Z,5.00
2018-11-29T14:19:34.595Z,5.27
2018-11-29T14:22:02.684Z,4.80
2018-11-29T14:24:30.765Z,4.57
2018-11-29T14:26:58.873Z,5.20
2018-11-29T14:29:26.990Z,4.80
2018-11-29T14:31:55.398Z,4.97
2018-11-29T14:34:23.479Z,4.90
2018-11-29T14:36:51.572Z,5.17
2018-11-29T14:39:19.668Z,4.87
2018-11-29T14:41:48.005Z,4.67
2018-11-29T14:44:16.084Z,5.17
2018-11-29T14:46:44.165Z,4.83
2018-11-29T14:49:12.473Z,4.70
2018-11-29T14:51:48.027Z,4.60
2018-11-29T14:54:08.733Z,4.70
2018-11-29T14:56:36.834Z,4.90
2018-11-29T14:59:05.101Z,4.80
2018-11-29T15:01:33.466Z,5.07
2018-11-29T15:04:01.568Z,4.80
2018-11-29T15:06:29.712Z,4.50
2018-11-29T15:08:57.825Z,4.60
2018-11-29T15:11:29.278Z,4.97
2018-11-29T15:13:54.077Z,4.87
2018-11-29T15:16:22.182Z,4.90
2018-11-29T15:18:50.305Z,4.93
2018-11-29T15:21:18.394Z,4.77
2018-11-29T15:23:46.528Z,5.30
2018-11-29T15:26:14.694Z,4.30
2018-11-29T15:28:42.798Z,5.23
2018-11-29T15:31:10.926Z,4.80
2018-11-29T15:33:39.036Z,5.27
2018-11-29T15:36:07.125Z,6.07
2018-11-29T15:38:35.217Z,4.73
2018-11-29T15:41:03.310Z,4.90
2018-11-29T15:43:31.463Z,5.13
2018-11-29T15:45:59.550Z,5.17
2018-11-29T15:48:27.641Z,5.53
2018-11-29T15:50:55.742Z,5.27
2018-11-29T15:53:23.852Z,4.43
2018-11-29T15:55:51.961Z,4.93
2018-11-29T15:58:20.272Z,4.67
2018-11-29T16:00:48.350Z,4.30
2018-11-29T16:03:16.509Z,4.90
2018-11-29T16:05:44.620Z,4.40
2018-11-29T16:08:12.742Z,4.33
2018-11-29T16:10:40.879Z,4.27
2018-11-29T16:13:08.982Z,5.83
2018-11-29T16:15:37.585Z,4.87
2018-11-29T16:18:05.940Z,5.13
2018-11-29T16:20:35.678Z,4.30
2018-11-29T16:23:03.957Z,5.03
2018-11-29T16:25:32.258Z,4.83
2018-11-29T16:28:00.382Z,4.43
2018-11-29T16:30:34.634Z,4.60
2018-11-29T16:33:08.325Z,4.57
2018-11-29T16:35:36.449Z,4.37
2018-11-29T16:38:04.565Z,3.80
2018-11-29T16:40:32.660Z,4.47
2018-11-29T16:43:00.769Z,4.40
2018-11-29T16:45:28.914Z,4.70
2018-11-29T16:47:57.260Z,4.73
2018-11-29T16:50:25.410Z,4.40
2018-11-29T16:52:53.534Z,4.87
2018-11-29T16:55:21.676Z,4.53
2018-11-29T16:57:53.785Z,3.97
2018-11-29T17:00:23.541Z,4.37
2018-11-29T17:02:51.700Z,4.13
2018-11-29T17:05:19.832Z,3.97
2018-11-29T17:07:47.955Z,4.07
2018-11-29T17:10:17.098Z,3.97
2018-11-29T17:12:47.716Z,4.00
2018-11-29T17:15:17.037Z,4.13
2018-11-29T17:17:45.153Z,4.40
2018-11-29T17:20:15.009Z,4.03
2018-11-29T17:22:43.430Z,4.53
2018-11-29T17:25:12.278Z,3.97
2018-11-29T17:27:40.395Z,4.17
2018-11-29T17:30:15.928Z,3.63
2018-11-29T17:32:44.160Z,3.87
2018-11-29T17:35:12.252Z,4.53
2018-11-29T17:37:40.410Z,4.77
2018-11-29T17:40:10.850Z,4.10
2018-11-29T17:42:38.956Z,4.23
2018-11-29T17:45:09.962Z,4.50
2018-11-29T17:47:38.085Z,4.10
2018-11-29T17:50:12.046Z,3.93
2018-11-29T17:52:40.181Z,4.33
2018-11-29T17:55:08.278Z,3.80
2018-11-29T17:57:36.494Z,3.77
2018-11-29T18:00:10.371Z,3.93
2018-11-29T18:02:38.480Z,3.90
2018-11-29T18:05:07.048Z,3.73
2018-11-29T18:07:35.140Z,3.53
2018-11-29T18:10:03.229Z,3.90
2018-11-29T18:12:31.341Z,4.20
2018-11-29T18:14:59.432Z,3.70
2018-11-29T18:17:27.529Z,4.17
2018-11-29T18:19:55.601Z,4.10
2018-11-29T18:22:23.695Z,3.53
2018-11-29T18:24:51.790Z,3.80
2018-11-29T18:27:19.869Z,3.60
2018-11-29T18:29:47.963Z,3.33
2018-11-29T18:32:16.033Z,4.07
2018-11-29T18:34:44.162Z,3.40
2018-11-29T18:37:12.269Z,3.53
2018-11-29T18:39:40.618Z,3.43
2018-11-29T18:42:08.845Z,3.93
2018-11-29T18:44:36.926Z,3.70
2018-11-29T18:47:05.199Z,3.70
2018-11-29T18:49:33.313Z,3.50
2018-11-29T18:52:01.406Z,3.67
2018-11-29T18:54:29.496Z,3.90
2018-11-29T18:56:57.577Z,4.17
2018-11-29T18:59:25.677Z,3.87
2018-11-29T19:01:53.775Z,3.40
2018-11-29T19:04:21.860Z,3.60
2018-11-29T19:06:49.939Z,3.60
2018-11-29T19:09:18.147Z,3.40
2018-11-29T19:11:46.253Z,4.00
2018-11-29T19:14:14.393Z,3.60
2018-11-29T19:16:42.675Z,3.73
2018-11-29T19:19:10.836Z,4.50
2018-11-29T19:21:38.934Z,3.67
2018-11-29T19:24:07.038Z,3.80
2018-11-29T19:26:35.134Z,3.90
2018-11-29T19:29:03.267Z,3.77
2018-11-29T19:31:31.361Z,3.23
2018-11-29T19:34:01.556Z,3.47
2018-11-29T19:36:27.708Z,3.43
2018-11-29T19:38:55.813Z,3.40
2018-11-29T19:41:23.954Z,3.80
2018-11-29T19:43:52.066Z,3.30
2018-11-29T19:46:20.180Z,3.23
2018-11-29T19:48:48.276Z,3.23
2018-11-29T19:51:16.405Z,3.30
2018-11-29T19:53:44.709Z,3.13
2018-11-29T19:56:13.082Z,2.83
2018-11-29T19:58:41.203Z,3.43
2018-11-29T20:01:09.328Z,3.43
2018-11-29T20:03:37.424Z,3.23
2018-11-29T20:06:05.829Z,3.17
2018-11-29T20:08:33.924Z,3.03
2018-11-29T20:11:02.061Z,3.17
2018-11-29T20:13:30.246Z,3.30
2018-11-29T20:15:58.388Z,3.37
2018-11-29T20:18:26.507Z,3.30
2018-11-29T20:20:54.650Z,3.33
2018-11-29T20:23:22.998Z,2.97
2018-11-29T20:25:51.121Z,3.03
2018-11-29T20:28:19.263Z,3.37
2018-11-29T20:30:47.363Z,3.10
2018-11-29T20:33:15.497Z,2.90
2018-11-29T20:35:43.630Z,2.90
2018-11-29T20:38:11.737Z,3.60
2018-11-29T20:40:41.573Z,2.80
2018-11-29T20:43:09.701Z,2.83
2018-11-29T20:45:57.509Z,3.00
2018-11-29T20:48:27.077Z,3.13
2018-11-29T20:50:56.286Z,3.00
2018-11-29T20:53:26.125Z,2.80
2018-11-29T20:55:54.212Z,2.83
2018-11-29T20:58:22.286Z,2.87
2018-11-29T21:00:50.494Z,3.40
2018-11-29T21:03:18.609Z,3.00
2018-11-29T21:05:46.697Z,2.90
2018-11-29T21:08:14.807Z,3.13
2018-11-29T21:10:42.909Z,3.07
2018-11-29T21:13:10.989Z,2.70
2018-11-29T21:15:40.409Z,3.13
2018-11-29T21:18:09.909Z,2.83
2018-11-29T21:20:39.169Z,2.70
2018-11-29T21:23:08.830Z,2.80
2018-11-29T21:25:36.911Z,3.50
2018-11-29T21:28:06.152Z,3.30
2018-11-29T21:30:34.270Z,2.80
2018-11-29T21:33:02.405Z,3.00
2018-11-29T21:35:30.526Z,2.83
2018-11-29T21:37:58.682Z,3.27
2018-11-29T21:40:30.940Z,3.17
2018-11-29T21:42:59.061Z,3.37
2018-11-29T21:45:27.166Z,2.77
2018-11-29T21:47:55.265Z,2.93
2018-11-29T21:50:23.374Z,2.87
2018-11-29T21:52:51.481Z,3.33
2018-11-29T21:55:19.635Z,2.60
2018-11-29T21:57:47.727Z,3.00
2018-11-29T22:00:18.075Z,2.67
2018-11-29T22:02:52.502Z,3.13
2018-11-29T22:05:20.608Z,3.20
2018-11-29T22:07:48.741Z,3.17
2018-11-29T22:10:16.865Z,2.90
2018-11-29T22:12:44.985Z,2.80
2018-11-29T22:15:13.237Z,3.63
2018-11-29T22:18:47.304Z,3.37
2018-11-29T22:21:15.432Z,2.90
2018-11-29T22:23:43.559Z,3.00
2018-11-29T22:26:14.071Z,3.10
2018-11-29T22:28:42.418Z,2.77
2018-11-29T22:31:10.535Z,2.80
2018-11-29T22:33:38.680Z,2.53
2018-11-29T22:36:06.848Z,2.80
2018-11-29T22:38:35.025Z,2.93
2018-11-29T22:41:03.145Z,2.73
2018-11-29T22:43:31.475Z,3.10
2018-11-29T22:45:59.388Z,3.17
2018-11-29T22:48:27.491Z,3.27
2018-11-29T22:50:55.607Z,3.30
2018-11-29T22:53:23.766Z,3.67
2018-11-29T22:55:51.873Z,3.37
2018-11-29T22:58:20.009Z,2.60
2018-11-29T23:00:52.497Z,3.00
2018-11-29T23:03:20.892Z,2.83
2018-11-29T23:05:49.167Z,2.70
2018-11-29T23:08:17.281Z,2.60
2018-11-29T23:10:45.495Z,3.33
2018-11-29T23:13:13.621Z,2.83
2018-11-29T23:15:41.804Z,3.20
2018-11-29T23:18:09.928Z,2.90
2018-11-29T23:20:38.260Z,2.60
2018-11-29T23:23:06.408Z,2.80
2018-11-29T23:25:34.984Z,3.10
2018-11-29T23:28:03.685Z,3.17
2018-11-29T23:30:31.836Z,2.63
2018-11-29T23:33:00.178Z,2.63
2018-11-29T23:35:28.305Z,2.87
2018-11-29T23:37:56.651Z,2.77
2018-11-29T23:40:25.035Z,3.37
2018-11-29T23:42:53.137Z,2.77
2018-11-29T23:45:21.250Z,2.77
2018-11-29T23:47:49.360Z,3.07
2018-11-29T23:50:18.149Z,2.80
2018-11-29T23:52:46.619Z,2.90
2018-11-29T23:55:17.168Z,3.30
2018-11-29T23:57:45.299Z,2.97
